Time;durP1;ratioP1;P1;durP2;ratioP2;P2;SDS_P1;SDS_P2;PMS_P1;PMS_P2;Temp;Humidity;BMP_temperature;BMP_pressure;BME280_temperature;BME280_humidity;BME280_pressure;Samples;Min_cycle;Max_cycle;Signal;HPM_P1;HPM_P2
2022/10/14 00:00:30;;;;;;;20.52;12.40;;;11.80;99.90;;;;;;5021834;28;20041;-76
2022/10/14 00:02:56;;;;;;;28.55;15.18;;;11.80;99.90;;;;;;5026045;28;20139;-75
2022/10/14 00:05:21;;;;;;;26.95;16.70;;;11.70;99.90;;;;;;5018020;28;20483;-75
2022/10/14 00:07:47;;;;;;;39.55;17.63;;;11.70;99.90;;;;;;5016374;28;20037;-76
2022/10/14 00:10:13;;;;;;;39.97;16.67;;;11.80;99.90;;;;;;5013373;28;20044;-76
2022/10/14 00:12:38;;;;;;;44.75;17.65;;;11.80;99.90;;;;;;5041966;28;20582;-76
2022/10/14 00:15:05;;;;;;;76.68;17.65;;;11.80;99.90;;;;;;5015154;28;20430;-76
2022/10/14 00:17:31;;;;;;;28.95;16.40;;;11.80;99.90;;;;;;5021700;28;20041;-76
2022/10/14 00:19:56;;;;;;;28.08;16.05;;;11.80;99.90;;;;;;5043790;28;20092;-76
2022/10/14 00:22:22;;;;;;;25.00;15.50;;;11.80;99.90;;;;;;5022908;28;20121;-76
2022/10/14 00:24:48;;;;;;;27.23;14.77;;;11.80;99.90;;;;;;5004658;28;20061;-76
2022/10/14 00:27:13;;;;;;;21.63;13.63;;;11.80;99.90;;;;;;5011292;28;20084;-76
2022/10/14 00:29:39;;;;;;;23.85;14.63;;;11.90;99.90;;;;;;5023484;28;20091;-76
2022/10/14 00:32:04;;;;;;;22.92;14.18;;;11.90;99.90;;;;;;5022983;28;20079;-76
2022/10/14 00:34:30;;;;;;;27.48;14.43;;;11.80;99.90;;;;;;5025716;28;20490;-76
2022/10/14 00:36:56;;;;;;;25.52;14.77;;;11.90;99.90;;;;;;5025551;28;20098;-76
2022/10/14 00:39:21;;;;;;;28.05;15.40;;;11.80;99.90;;;;;;5016822;28;20484;-76
2022/10/14 00:41:47;;;;;;;27.30;15.82;;;11.90;99.90;;;;;;5013980;28;20076;-76
2022/10/14 00:44:12;;;;;;;32.47;16.02;;;11.80;99.90;;;;;;5027105;28;20041;-75
2022/10/14 00:46:40;;;;;;;35.20;16.92;;;11.90;99.90;;;;;;5025208;28;20399;-76
2022/10/14 00:49:36;;;;;;;41.33;17.50;;;11.80;99.90;;;;;;5020672;28;20037;-76
2022/10/14 00:52:12;;;;;;;42.80;19.13;;;11.80;99.90;;;;;;5022343;28;20056;-76
2022/10/14 00:55:00;;;;;;;43.35;18.58;;;11.80;99.90;;;;;;5032740;28;20049;-75
2022/10/14 00:57:28;;;;;;;47.08;20.10;;;11.80;99.90;;;;;;5004861;28;20518;-76
2022/10/14 00:59:59;;;;;;;56.88;22.17;;;11.90;99.90;;;;;;5009712;28;20081;-76
2022/10/14 01:02:25;;;;;;;50.95;20.15;;;11.90;99.90;;;;;;5013621;28;20073;-76
2022/10/14 01:04:50;;;;;;;56.88;21.58;;;11.90;99.90;;;;;;5050755;28;20070;-76
2022/10/14 01:07:33;;;;;;;57.95;22.00;;;11.80;99.90;;;;;;5016608;28;20061;-76
2022/10/14 01:10:07;;;;;;;;;;;11.90;99.90;;;;;;5015386;28;20045;-76
2022/10/14 01:12:39;;;;;;;53.97;20.45;;;11.90;99.90;;;;;;5018483;28;19924;-76
2022/10/14 01:15:14;;;;;;;;;;;11.90;99.90;;;;;;5027685;28;20053;-76
2022/10/14 01:18:09;;;;;;;58.92;21.15;;;11.90;99.90;;;;;;5019383;28;19921;-76
2022/10/14 01:20:34;;;;;;;60.85;21.60;;;12.00;99.90;;;;;;5009207;28;20511;-76
2022/10/14 01:23:39;;;;;;;54.03;22.27;;;11.90;99.90;;;;;;5016808;28;20126;-76
2022/10/14 01:26:26;;;;;;;64.85;22.80;;;11.90;99.90;;;;;;5006429;28;20042;-76
2022/10/14 01:29:06;;;;;;;62.85;22.90;;;12.00;99.90;;;;;;5009697;28;20037;-76
2022/10/14 01:31:35;;;;;;;66.55;23.08;;;11.90;99.90;;;;;;5012484;28;20147;-76
2022/10/14 01:34:08;;;;;;;62.92;22.10;;;11.90;99.90;;;;;;5048795;28;20092;-76
2022/10/14 01:36:47;;;;;;;69.90;23.95;;;11.90;99.90;;;;;;5019797;28;20498;-77
2022/10/14 01:39:38;;;;;;;65.40;25.17;;;11.90;99.90;;;;;;5016363;28;20491;-77
2022/10/14 01:42:08;;;;;;;59.33;23.25;;;11.90;99.90;;;;;;5014265;28;20045;-77
2022/10/14 01:44:39;;;;;;;60.00;22.92;;;11.90;99.90;;;;;;5022066;28;20142;-76
2022/10/14 01:47:07;;;;;;;57.92;22.58;;;11.90;99.90;;;;;;5024781;28;20645;-77
2022/10/14 01:49:40;;;;;;;54.55;22.33;;;11.90;99.90;;;;;;5021537;28;20499;-76
2022/10/14 01:52:12;;;;;;;60.17;20.80;;;11.90;99.90;;;;;;5012899;28;20509;-77
2022/10/14 01:54:41;;;;;;;57.33;20.33;;;11.90;99.90;;;;;;5018887;28;20068;-76
2022/10/14 01:57:12;;;;;;;60.85;21.27;;;11.90;99.90;;;;;;5022858;28;20095;-77
2022/10/14 01:59:40;;;;;;;60.20;22.90;;;11.80;99.90;;;;;;5007971;28;20038;-76
2022/10/14 02:02:05;;;;;;;54.28;20.63;;;11.90;99.90;;;;;;5024430;28;20099;-77
2022/10/14 02:04:31;;;;;;;61.72;23.00;;;11.80;99.90;;;;;;5025932;28;20048;-76
2022/10/14 02:07:15;;;;;;;57.38;21.13;;;11.90;99.90;;;;;;5021798;28;20033;-76
2022/10/14 02:09:52;;;;;;;58.50;21.40;;;11.90;99.90;;;;;;5016506;28;20095;-77
2022/10/14 02:12:32;;;;;;;50.47;20.33;;;11.80;99.90;;;;;;5019433;28;20129;-76
2022/10/14 02:15:10;;;;;;;50.15;19.70;;;11.80;99.90;;;;;;5014085;28;20068;-75
2022/10/14 02:18:08;;;;;;;48.95;18.70;;;11.80;99.90;;;;;;5046052;28;20056;-76
2022/10/14 02:20:40;;;;;;;54.75;19.95;;;11.90;99.90;;;;;;5015085;28;20173;-76
2022/10/14 02:23:17;;;;;;;43.13;17.57;;;11.80;99.90;;;;;;5022860;28;20613;-76
2022/10/14 02:25:46;;;;;;;42.90;17.30;;;11.80;99.90;;;;;;5040322;28;20279;-76
2022/10/14 02:28:16;;;;;;;39.97;17.33;;;11.80;99.90;;;;;;5006812;28;20048;-75
2022/10/14 02:30:54;;;;;;;38.75;16.63;;;11.80;99.90;;;;;;5021862;28;20040;-76
2022/10/14 02:33:23;;;;;;;57.15;17.02;;;11.70;99.90;;;;;;5020379;28;20098;-77
2022/10/14 02:35:50;;;;;;;64.78;16.73;;;11.80;99.90;;;;;;5016146;28;20051;-76
2022/10/14 02:38:18;;;;;;;45.97;17.33;;;11.70;99.90;;;;;;5013145;28;20507;-76
2022/10/14 02:40:46;;;;;;;39.25;16.33;;;11.70;99.90;;;;;;5026514;28;20499;-76
2022/10/14 02:43:12;;;;;;;45.03;17.00;;;11.70;99.90;;;;;;5021619;28;20446;-76
2022/10/14 02:45:40;;;;;;;51.70;18.88;;;11.70;99.90;;;;;;5027223;28;20049;-76
2022/10/14 02:48:07;;;;;;;58.83;19.70;;;11.70;99.90;;;;;;5024566;28;20041;-76
2022/10/14 02:50:32;;;;;;;50.55;19.40;;;11.70;99.90;;;;;;5014502;28;20052;-77
2022/10/14 02:52:58;;;;;;;76.50;19.77;;;11.70;99.90;;;;;;5022311;28;20045;-76
2022/10/14 02:55:23;;;;;;;44.45;17.50;;;11.60;99.90;;;;;;5014889;28;20045;-76
2022/10/14 02:57:49;;;;;;;45.95;17.75;;;11.60;99.90;;;;;;5022295;28;20376;-75
2022/10/14 03:00:16;;;;;;;37.00;16.00;;;11.70;99.90;;;;;;5020964;28;20045;-76
2022/10/14 03:02:41;;;;;;;37.45;15.43;;;11.60;99.90;;;;;;5027657;28;20056;-76
2022/10/14 03:05:08;;;;;;;56.20;17.60;;;11.50;99.90;;;;;;5041870;28;20059;-76
2022/10/14 03:07:33;;;;;;;45.40;18.60;;;11.50;99.90;;;;;;5023788;28;20041;-76
2022/10/14 03:09:59;;;;;;;43.08;18.25;;;11.50;99.90;;;;;;5023960;28;20121;-76
2022/10/14 03:12:25;;;;;;;59.28;19.15;;;11.50;99.90;;;;;;5011831;28;20483;-76
2022/10/14 03:14:50;;;;;;;47.50;19.08;;;11.50;99.90;;;;;;5022509;28;20414;-76
2022/10/14 03:17:16;;;;;;;35.50;16.63;;;11.50;99.90;;;;;;5019626;28;20034;-76
2022/10/14 03:19:42;;;;;;;35.33;16.67;;;11.50;99.90;;;;;;5026745;28;20453;-76
2022/10/14 03:22:07;;;;;;;31.00;15.40;;;11.50;99.90;;;;;;5018938;28;20044;-77
2022/10/14 03:24:33;;;;;;;42.88;15.48;;;11.40;99.90;;;;;;5015559;28;20054;-77
2022/10/14 03:26:59;;;;;;;31.23;14.23;;;11.50;99.90;;;;;;5020981;28;20045;-76
2022/10/14 03:29:24;;;;;;;25.92;13.23;;;11.40;99.90;;;;;;5015547;28;20045;-76
2022/10/14 03:31:50;;;;;;;25.92;14.00;;;11.40;99.90;;;;;;5007553;28;20051;-76
2022/10/14 03:34:16;;;;;;;27.75;13.55;;;11.40;99.90;;;;;;5024319;28;20046;-76
2022/10/14 03:36:41;;;;;;;24.23;12.98;;;11.30;99.90;;;;;;5031652;28;20503;-76
2022/10/14 03:39:09;;;;;;;24.02;12.95;;;11.30;99.90;;;;;;5012411;28;20053;-77
2022/10/14 03:41:34;;;;;;;44.28;12.52;;;11.30;99.90;;;;;;5014929;28;20380;-76
2022/10/14 03:44:00;;;;;;;22.17;12.20;;;11.30;99.90;;;;;;5032923;28;20103;-76
2022/10/14 03:46:26;;;;;;;23.80;13.10;;;11.30;99.90;;;;;;5018696;28;20077;-76
2022/10/14 03:48:52;;;;;;;23.35;12.68;;;11.20;99.90;;;;;;5035565;28;20487;-76
2022/10/14 03:51:17;;;;;;;23.05;13.13;;;11.20;99.90;;;;;;5022957;28;20041;-76
2022/10/14 03:53:43;;;;;;;24.65;13.23;;;11.20;99.90;;;;;;5035278;28;20095;-76
2022/10/14 03:56:09;;;;;;;25.23;13.50;;;11.20;99.90;;;;;;5020015;28;20052;-76
2022/10/14 03:58:34;;;;;;;22.33;12.90;;;11.20;99.90;;;;;;5008154;28;20068;-76
2022/10/14 04:01:00;;;;;;;27.30;13.50;;;11.20;99.90;;;;;;5011149;28;20038;-76
2022/10/14 04:03:25;;;;;;;25.63;13.77;;;11.20;99.90;;;;;;5005994;28;20041;-76
2022/10/14 04:05:51;;;;;;;24.60;13.23;;;11.20;99.90;;;;;;5020624;28;20073;-76
2022/10/14 04:08:17;;;;;;;24.17;13.25;;;11.20;99.90;;;;;;5015565;28;20422;-76
2022/10/14 04:10:42;;;;;;;24.02;13.10;;;11.20;99.90;;;;;;5014621;28;20088;-76
2022/10/14 04:13:08;;;;;;;24.13;12.93;;;11.20;99.90;;;;;;5002734;28;20038;-76
2022/10/14 04:15:37;;;;;;;23.48;13.27;;;11.20;99.90;;;;;;5021707;28;20084;-76
2022/10/14 04:18:03;;;;;;;22.95;13.18;;;11.20;99.90;;;;;;5009954;28;20037;-76
2022/10/14 04:20:29;;;;;;;23.20;13.55;;;11.20;99.90;;;;;;5028038;28;20042;-76
2022/10/14 04:22:57;;;;;;;25.67;13.65;;;11.20;99.90;;;;;;5010809;28;20030;-76
2022/10/14 04:25:23;;;;;;;23.38;13.23;;;11.20;99.90;;;;;;5004726;28;20407;-76
2022/10/14 04:27:48;;;;;;;22.92;13.45;;;11.20;99.90;;;;;;5039598;28;20041;-76
2022/10/14 04:30:14;;;;;;;25.73;13.43;;;11.10;99.90;;;;;;5013979;28;20552;-76
2022/10/14 04:32:40;;;;;;;25.25;13.93;;;11.20;99.90;;;;;;5023713;28;20045;-76
2022/10/14 04:35:06;;;;;;;23.38;14.05;;;11.20;99.90;;;;;;5019197;28;20041;-77
2022/10/14 04:37:31;;;;;;;23.88;13.48;;;11.20;99.90;;;;;;5015450;28;20037;-76
2022/10/14 04:39:57;;;;;;;25.50;14.38;;;11.20;99.90;;;;;;5022791;28;20488;-76
2022/10/14 04:42:22;;;;;;;25.52;13.82;;;11.20;99.90;;;;;;5016351;28;20109;-76
2022/10/14 04:44:49;;;;;;;27.75;14.98;;;11.20;99.90;;;;;;5016272;28;20041;-76
2022/10/14 04:47:15;;;;;;;24.35;14.32;;;11.20;99.90;;;;;;5010394;28;20495;-76
2022/10/14 04:49:40;;;;;;;25.75;14.35;;;11.20;99.90;;;;;;5023635;28;20048;-76
2022/10/14 04:52:06;;;;;;;28.20;14.95;;;11.20;99.90;;;;;;5014846;28;20099;-76
2022/10/14 04:54:31;;;;;;;27.10;14.93;;;11.20;99.90;;;;;;5015151;28;20491;-76
2022/10/14 04:56:57;;;;;;;27.75;14.57;;;11.20;99.90;;;;;;5000743;28;20044;-76
2022/10/14 04:59:22;;;;;;;30.20;15.35;;;11.20;99.90;;;;;;5035937;28;20073;-76
2022/10/14 05:01:48;;;;;;;27.17;14.15;;;11.20;99.90;;;;;;5021048;28;20522;-76
2022/10/14 05:04:13;;;;;;;29.83;15.77;;;11.20;99.90;;;;;;5021170;28;20084;-76
2022/10/14 05:06:39;;;;;;;32.63;16.20;;;11.20;99.90;;;;;;5014484;28;20034;-76
2022/10/14 05:09:05;;;;;;;29.02;14.43;;;11.20;99.90;;;;;;5020706;28;20045;-76
2022/10/14 05:11:31;;;;;;;34.13;16.83;;;11.20;99.90;;;;;;5024795;28;20537;-75
2022/10/14 05:13:57;;;;;;;36.03;16.67;;;11.20;99.90;;;;;;5030201;28;20139;-76
2022/10/14 05:16:22;;;;;;;32.05;16.48;;;11.20;99.90;;;;;;5017658;28;20053;-76
2022/10/14 05:18:48;;;;;;;36.78;16.20;;;11.30;99.90;;;;;;5029962;28;20471;-76
2022/10/14 05:21:13;;;;;;;34.47;17.00;;;11.20;99.90;;;;;;5018171;28;20120;-76
2022/10/14 05:23:39;;;;;;;34.08;16.10;;;11.30;99.90;;;;;;5008893;28;20079;-76
2022/10/14 05:26:05;;;;;;;41.88;16.63;;;11.30;99.90;;;;;;5020328;28;20079;-76
2022/10/14 05:28:30;;;;;;;35.88;17.80;;;11.30;99.90;;;;;;5014300;28;20132;-76
2022/10/14 05:30:56;;;;;;;48.03;18.52;;;11.30;99.90;;;;;;5013236;28;20041;-76
2022/10/14 05:33:21;;;;;;;40.83;18.27;;;11.20;99.90;;;;;;5008403;28;20087;-76
2022/10/14 05:35:47;;;;;;;42.15;17.75;;;11.20;99.90;;;;;;5022513;28;20044;-76
2022/10/14 05:38:13;;;;;;;41.38;18.13;;;11.30;99.90;;;;;;5018476;28;20037;-76
2022/10/14 05:40:39;;;;;;;42.10;18.50;;;11.20;99.90;;;;;;5014094;28;20087;-76
2022/10/14 05:43:05;;;;;;;43.53;19.08;;;11.30;99.90;;;;;;5034245;28;20041;-76
2022/10/14 05:45:31;;;;;;;43.28;18.63;;;11.30;99.90;;;;;;5020606;28;20115;-76
2022/10/14 05:47:57;;;;;;;40.15;18.20;;;11.30;99.90;;;;;;5018174;28;20176;-76
2022/10/14 05:50:22;;;;;;;40.83;18.48;;;11.30;99.90;;;;;;5015949;28;20033;-76
2022/10/14 05:52:48;;;;;;;40.33;18.00;;;11.30;99.90;;;;;;5021522;28;20434;-75
2022/10/14 05:55:13;;;;;;;44.10;18.85;;;11.30;99.90;;;;;;5018336;28;20135;-76
2022/10/14 05:57:41;;;;;;;44.03;18.80;;;11.30;99.90;;;;;;5022218;28;20061;-76
2022/10/14 06:00:07;;;;;;;42.33;19.63;;;11.40;99.90;;;;;;5021605;28;20495;-76
2022/10/14 06:02:33;;;;;;;40.80;18.23;;;11.30;99.90;;;;;;5015440;28;20046;-76
2022/10/14 06:04:58;;;;;;;39.38;16.83;;;11.30;99.90;;;;;;5019299;28;20391;-76
2022/10/14 06:07:24;;;;;;;38.72;17.58;;;11.30;99.90;;;;;;5009118;28;20037;-76
2022/10/14 06:09:49;;;;;;;35.03;16.83;;;11.30;99.90;;;;;;5022573;28;20048;-76
2022/10/14 06:12:15;;;;;;;36.45;16.67;;;11.30;99.90;;;;;;5044561;28;20037;-76
2022/10/14 06:14:41;;;;;;;37.35;17.20;;;11.30;99.90;;;;;;5024468;28;20068;-76
2022/10/14 06:17:06;;;;;;;36.92;17.85;;;11.30;99.90;;;;;;5034479;28;20418;-76
2022/10/14 06:19:32;;;;;;;38.38;17.33;;;11.30;99.90;;;;;;5030627;28;20037;-76
2022/10/14 06:21:58;;;;;;;37.28;16.90;;;11.40;99.90;;;;;;5018477;28;20033;-76
2022/10/14 06:24:23;;;;;;;36.63;15.93;;;11.40;99.90;;;;;;4998987;28;20048;-76
2022/10/14 06:26:50;;;;;;;34.30;17.60;;;11.40;99.90;;;;;;5024596;28;20137;-76
2022/10/14 06:29:16;;;;;;;36.97;19.08;;;11.40;99.90;;;;;;5028782;28;20132;-76
2022/10/14 06:31:42;;;;;;;36.92;18.08;;;11.40;99.90;;;;;;5019658;28;20492;-76
2022/10/14 06:34:07;;;;;;;37.30;17.92;;;11.40;99.90;;;;;;5016817;28;20048;-76
2022/10/14 06:36:34;;;;;;;35.72;17.65;;;11.40;99.90;;;;;;5026842;28;20072;-76
2022/10/14 06:39:00;;;;;;;36.67;17.92;;;11.50;99.90;;;;;;5019639;28;20037;-76
2022/10/14 06:41:25;;;;;;;37.92;17.05;;;11.50;99.90;;;;;;5027182;28;20516;-76
2022/10/14 06:43:51;;;;;;;36.10;16.67;;;11.50;99.90;;;;;;5024465;28;20068;-77
2022/10/14 06:46:17;;;;;;;38.35;18.25;;;11.50;99.90;;;;;;5011273;28;20391;-76
2022/10/14 06:48:43;;;;;;;36.00;18.05;;;11.60;99.90;;;;;;5018706;28;20029;-76
2022/10/14 06:51:09;;;;;;;33.60;17.83;;;11.50;99.90;;;;;;5016613;28;20087;-76
2022/10/14 06:53:34;;;;;;;32.95;16.70;;;11.50;99.90;;;;;;5024833;28;20506;-76
2022/10/14 06:56:02;;;;;;;33.28;16.63;;;11.50;99.90;;;;;;4998602;28;20065;-76
2022/10/14 06:58:29;;;;;;;32.20;16.63;;;11.60;99.90;;;;;;5020336;28;20045;-76
2022/10/14 07:00:59;;;;;;;31.15;17.15;;;11.70;99.90;;;;;;5017440;28;20509;-76
2022/10/14 07:03:25;;;;;;;32.08;17.08;;;11.60;99.90;;;;;;5028921;28;20376;-77
2022/10/14 07:05:50;;;;;;;34.70;17.17;;;11.70;99.90;;;;;;5018084;28;20091;-76
2022/10/14 07:08:16;;;;;;;31.83;16.95;;;11.60;99.90;;;;;;5041966;28;20411;-76
2022/10/14 07:10:42;;;;;;;31.15;16.15;;;11.70;99.90;;;;;;5013073;28;20121;-76
2022/10/14 07:13:07;;;;;;;33.28;16.92;;;11.60;99.90;;;;;;5028810;28;20428;-76
2022/10/14 07:15:33;;;;;;;34.60;16.65;;;11.70;99.90;;;;;;5027681;28;20041;-77
2022/10/14 07:17:58;;;;;;;30.58;16.70;;;11.70;99.90;;;;;;5027337;28;20039;-77
2022/10/14 07:20:24;;;;;;;33.30;16.95;;;11.70;99.90;;;;;;5024447;28;20041;-77
2022/10/14 07:22:54;;;;;;;37.05;17.20;;;11.70;99.90;;;;;;5013921;28;20411;-76
2022/10/14 07:25:19;;;;;;;34.25;16.67;;;11.70;99.90;;;;;;5025682;28;20064;-76
2022/10/14 07:27:45;;;;;;;30.85;17.20;;;11.70;99.90;;;;;;5019542;28;20073;-76
2022/10/14 07:30:11;;;;;;;34.58;17.80;;;11.70;99.90;;;;;;5025905;28;20034;-77
2022/10/14 07:32:36;;;;;;;32.10;17.10;;;11.80;99.90;;;;;;5021153;28;20124;-77
2022/10/14 07:35:03;;;;;;;35.97;18.17;;;11.80;99.90;;;;;;5018064;28;20097;-77
2022/10/14 07:37:28;;;;;;;39.80;19.05;;;11.80;99.90;;;;;;4999765;28;20072;-77
2022/10/14 07:39:54;;;;;;;35.75;18.25;;;11.80;99.90;;;;;;5020478;28;20091;-77
2022/10/14 07:42:20;;;;;;;39.00;19.35;;;11.80;99.90;;;;;;5022391;28;20076;-77
2022/10/14 07:44:45;;;;;;;38.75;19.80;;;11.80;99.90;;;;;;5021525;28;20565;-77
2022/10/14 07:47:11;;;;;;;37.20;19.95;;;11.80;99.90;;;;;;5020071;28;20052;-77
2022/10/14 07:49:38;;;;;;;39.22;19.42;;;11.80;99.90;;;;;;5001469;28;20045;-77
2022/10/14 07:52:03;;;;;;;39.88;20.63;;;11.90;99.90;;;;;;5014958;28;20488;-76
2022/10/14 07:54:31;;;;;;;38.63;20.23;;;11.90;99.90;;;;;;5018586;28;20044;-76
2022/10/14 07:56:57;;;;;;;39.72;20.77;;;11.90;99.90;;;;;;5020737;28;20461;-76
2022/10/14 07:59:23;;;;;;;39.78;20.40;;;11.90;99.90;;;;;;5026017;28;20069;-76
2022/10/14 08:01:51;;;;;;;41.00;20.55;;;11.90;99.90;;;;;;5017632;28;20048;-76
2022/10/14 08:04:17;;;;;;;39.90;20.52;;;11.90;99.90;;;;;;5030088;28;20120;-76
2022/10/14 08:06:43;;;;;;;39.95;20.48;;;12.10;99.90;;;;;;5017239;28;20029;-77
2022/10/14 08:09:11;;;;;;;38.47;20.42;;;12.00;99.90;;;;;;5025988;28;20459;-77
2022/10/14 08:11:36;;;;;;;41.85;21.83;;;12.00;99.90;;;;;;5027280;28;20041;-77
2022/10/14 08:14:03;;;;;;;41.28;21.27;;;12.00;99.90;;;;;;5031287;28;20037;-77
2022/10/14 08:16:32;;;;;;;45.20;22.60;;;12.00;99.90;;;;;;5043126;28;20043;-77
2022/10/14 08:19:01;;;;;;;44.05;21.65;;;12.00;99.90;;;;;;5017161;28;20132;-76
2022/10/14 08:21:26;;;;;;;46.47;21.70;;;11.90;99.90;;;;;;5016124;28;20045;-76
2022/10/14 08:23:53;;;;;;;43.85;22.63;;;12.00;99.90;;;;;;5029185;28;20041;-76
2022/10/14 08:26:20;;;;;;;48.38;22.60;;;12.00;99.90;;;;;;5020606;28;20442;-76
2022/10/14 08:28:48;;;;;;;49.45;22.67;;;12.10;99.90;;;;;;5029243;28;20104;-77
2022/10/14 08:31:14;;;;;;;48.38;23.05;;;12.10;99.90;;;;;;5021937;28;20042;-77
2022/10/14 08:33:40;;;;;;;45.20;22.83;;;12.10;99.90;;;;;;5014809;28;20065;-77
2022/10/14 08:36:06;;;;;;;48.90;22.15;;;12.10;99.90;;;;;;5015733;28;20482;-77
2022/10/14 08:38:32;;;;;;;45.63;22.25;;;12.10;99.90;;;;;;5010980;28;20056;-77
2022/10/14 08:41:15;;;;;;;47.80;22.05;;;12.10;99.90;;;;;;5017140;28;20037;-77
2022/10/14 08:44:06;;;;;;;50.97;24.02;;;12.10;99.90;;;;;;5023318;28;20041;-77
2022/10/14 08:46:40;;;;;;;46.33;21.95;;;12.10;99.90;;;;;;5042337;28;20088;-76
2022/10/14 08:49:21;;;;;;;48.45;22.52;;;12.10;99.90;;;;;;5009059;28;20033;-75
2022/10/14 08:51:55;;;;;;;49.25;22.58;;;12.20;99.90;;;;;;5034945;28;20430;-76
2022/10/14 08:54:37;;;;;;;50.33;22.65;;;12.10;99.90;;;;;;5025371;28;20115;-75
2022/10/14 08:57:04;;;;;;;45.10;22.60;;;12.20;99.90;;;;;;5015732;28;20128;-76
2022/10/14 08:59:36;;;;;;;51.67;22.33;;;12.30;99.90;;;;;;5018313;28;20053;-76
2022/10/14 09:02:13;;;;;;;48.42;21.67;;;12.20;99.90;;;;;;5027547;28;20040;-76
2022/10/14 09:04:39;;;;;;;45.28;20.90;;;12.20;99.90;;;;;;5024227;28;20108;-76
2022/10/14 09:07:05;;;;;;;43.63;20.75;;;12.20;99.90;;;;;;5020390;28;20159;-76
2022/10/14 09:09:40;;;;;;;44.70;21.95;;;12.30;99.90;;;;;;5013153;28;20048;-76
2022/10/14 09:12:12;;;;;;;47.85;21.75;;;12.30;99.90;;;;;;5014807;28;20056;-76
2022/10/14 09:14:43;;;;;;;44.90;20.73;;;12.30;99.90;;;;;;5028308;28;20048;-76
2022/10/14 09:17:17;;;;;;;43.38;20.27;;;12.40;99.90;;;;;;5016393;28;20046;-75
2022/10/14 09:20:00;;;;;;;44.90;20.15;;;12.30;99.90;;;;;;5021602;28;20340;-75
2022/10/14 09:22:26;;;;;;;;;;;12.30;99.90;;;;;;5017503;28;20135;-75
2022/10/14 09:24:51;;;;;;;48.72;20.60;;;12.30;99.90;;;;;;5016960;28;20390;-75
2022/10/14 09:27:21;;;;;;;44.08;18.42;;;12.40;99.90;;;;;;5013811;28;20036;-75
2022/10/14 09:29:56;;;;;;;39.35;18.92;;;12.40;99.90;;;;;;5015516;28;20356;-75
2022/10/14 09:32:33;;;;;;;37.03;18.33;;;12.30;99.90;;;;;;5013889;28;20037;-75
2022/10/14 09:34:59;;;;;;;43.22;18.20;;;12.30;99.90;;;;;;5010963;28;20400;-75
2022/10/14 09:37:27;;;;;;;41.33;17.80;;;12.40;99.90;;;;;;5039341;28;20052;-75
2022/10/14 09:39:58;;;;;;;39.75;17.92;;;12.40;99.90;;;;;;4999153;28;20063;-75
2022/10/14 09:42:43;;;;;;;39.33;17.73;;;12.40;99.90;;;;;;5018511;28;20048;-75
2022/10/14 09:45:15;;;;;;;35.20;16.50;;;12.50;99.90;;;;;;5007838;28;20069;-75
2022/10/14 09:47:55;;;;;;;32.65;15.25;;;12.40;99.90;;;;;;5022849;28;20068;-75
2022/10/14 09:50:33;;;;;;;35.47;15.63;;;12.40;99.90;;;;;;5009565;28;20049;-75
2022/10/14 09:53:02;;;;;;;31.17;14.65;;;12.40;99.90;;;;;;5009880;28;20053;-75
2022/10/14 09:55:29;;;;;;;30.35;14.57;;;12.40;99.90;;;;;;5015054;28;20037;-75
2022/10/14 09:58:13;;;;;;;34.42;15.32;;;12.50;99.90;;;;;;5023223;28;20049;-75
2022/10/14 10:00:39;;;;;;;33.92;14.77;;;12.50;99.90;;;;;;5019990;28;20399;-75
2022/10/14 10:03:05;;;;;;;35.83;14.73;;;12.50;99.90;;;;;;5042475;28;20045;-75
2022/10/14 10:05:34;;;;;;;37.55;15.27;;;12.50;99.90;;;;;;5025658;28;20172;-75
2022/10/14 10:08:17;;;;;;;34.25;15.23;;;12.50;99.90;;;;;;5026456;28;20045;-76
2022/10/14 10:10:59;;;;;;;32.75;15.00;;;12.50;99.90;;;;;;5028953;28;20044;-76
2022/10/14 10:13:34;;;;;;;32.03;15.43;;;12.60;99.90;;;;;;5022816;28;20038;-75
2022/10/14 10:16:03;;;;;;;33.42;15.13;;;12.60;99.90;;;;;;5041114;28;20129;-75
2022/10/14 10:18:29;;;;;;;30.88;15.02;;;12.60;99.90;;;;;;5027697;28;20329;-75
2022/10/14 10:21:14;;;;;;;33.40;15.48;;;12.60;99.90;;;;;;5023810;28;20041;-75
2022/10/14 10:23:51;;;;;;;35.75;16.55;;;12.60;99.90;;;;;;5019899;28;20037;-75
2022/10/14 10:26:27;;;;;;;35.58;17.02;;;12.70;99.90;;;;;;5016660;28;20072;-76
2022/10/14 10:28:56;;;;;;;38.70;16.77;;;12.60;99.90;;;;;;5017914;28;20048;-75
2022/10/14 10:31:53;;;;;;;39.60;15.85;;;12.60;99.90;;;;;;5017932;28;20087;-75
2022/10/14 10:34:34;;;;;;;41.78;17.77;;;12.70;99.90;;;;;;5022653;28;20045;-75
2022/10/14 10:37:21;;;;;;;47.95;19.65;;;12.70;99.90;;;;;;5013773;28;20041;-76
2022/10/14 10:40:19;;;;;;;42.17;18.63;;;12.70;99.90;;;;;;5018456;28;20163;-76
2022/10/14 10:43:04;;;;;;;48.67;20.92;;;12.70;99.90;;;;;;5046548;28;20379;-76
2022/10/14 10:45:48;;;;;;;53.05;21.48;;;12.70;99.90;;;;;;5042976;28;20029;-75
2022/10/14 10:48:26;;;;;;;56.28;22.33;;;12.80;99.90;;;;;;5044597;28;20073;-75
2022/10/14 10:51:08;;;;;;;54.03;22.48;;;12.80;99.90;;;;;;5031099;28;20059;-75
2022/10/14 10:54:06;;;;;;;53.00;21.13;;;12.90;99.90;;;;;;5028795;28;20037;-75
2022/10/14 10:56:42;;;;;;;51.65;21.42;;;12.90;99.90;;;;;;5027828;28;20052;-75
2022/10/14 10:59:22;;;;;;;57.75;23.77;;;12.90;99.90;;;;;;5020001;28;20045;-75
2022/10/14 11:02:09;;;;;;;59.53;23.95;;;13.00;99.90;;;;;;5017622;28;20046;-76
2022/10/14 11:04:49;;;;;;;54.72;23.08;;;13.10;99.90;;;;;;5017416;28;20034;-76
2022/10/14 11:13:08;;;;;;;58.75;24.13;;;13.30;99.90;;;;;;5012830;28;20042;-76
2022/10/14 11:15:39;;;;;;;54.95;23.65;;;13.30;99.90;;;;;;5012252;28;20454;-76
2022/10/14 11:18:25;;;;;;;52.87;23.40;;;13.30;99.90;;;;;;5015700;28;20273;-76
2022/10/14 11:21:13;;;;;;;55.25;22.58;;;13.30;99.90;;;;;;5026519;28;20045;-77
2022/10/14 11:24:00;;;;;;;47.20;20.98;;;13.40;99.90;;;;;;5016300;28;20037;-76
2022/10/14 11:26:44;;;;;;;48.70;20.75;;;13.50;99.90;;;;;;5005937;28;20038;-76
2022/10/14 11:29:22;;;;;;;47.70;20.45;;;13.40;99.90;;;;;;5008667;28;20061;-76
2022/10/14 11:31:53;;;;;;;44.00;19.88;;;13.40;99.90;;;;;;5013207;28;20041;-76
2022/10/14 11:34:39;;;;;;;41.42;19.10;;;13.40;99.90;;;;;;4998202;28;20132;-76
2022/10/14 11:37:43;;;;;;;41.70;18.48;;;13.50;99.90;;;;;;5016634;28;20127;-77
2022/10/14 11:40:23;;;;;;;40.00;18.45;;;13.50;99.90;;;;;;5003207;28;20132;-76
2022/10/14 11:43:16;;;;;;;38.03;18.90;;;13.50;99.90;;;;;;5022118;28;20130;-75
2022/10/14 11:45:51;;;;;;;35.88;17.10;;;13.60;99.90;;;;;;5030704;28;20033;-76
2022/10/14 11:48:32;;;;;;;35.72;16.65;;;13.60;99.90;;;;;;5015977;28;20069;-76
2022/10/14 11:51:09;;;;;;;30.77;15.30;;;13.60;99.90;;;;;;5021456;28;20037;-76
2022/10/14 11:53:47;;;;;;;33.30;15.43;;;13.60;99.90;;;;;;5015175;28;20665;-76
2022/10/14 11:56:49;;;;;;;29.27;14.82;;;13.60;99.90;;;;;;5015929;28;20084;-76
2022/10/14 11:59:46;;;;;;;28.67;14.10;;;13.70;99.90;;;;;;5012918;28;20463;-76
2022/10/14 12:02:50;;;;;;;23.25;12.40;;;13.70;99.90;;;;;;5029499;28;20050;-76
2022/10/14 12:05:21;;;;;;;26.10;12.43;;;13.80;99.90;;;;;;5026091;28;20507;-75
2022/10/14 12:07:59;;;;;;;24.77;12.10;;;13.80;99.90;;;;;;5012167;28;20045;-76
2022/10/14 12:10:31;;;;;;;22.77;12.18;;;13.80;99.90;;;;;;5008976;28;20056;-77
2022/10/14 12:12:59;;;;;;;16.88;10.45;;;13.90;99.90;;;;;;5027769;28;20039;-77
2022/10/14 12:15:27;;;;;;;19.27;10.18;;;14.00;99.90;;;;;;5012304;28;20124;-77
2022/10/14 12:17:57;;;;;;;15.02;9.10;;;14.00;99.90;;;;;;5008835;28;20050;-76
2022/10/14 12:20:46;;;;;;;14.75;9.15;;;14.10;99.90;;;;;;5020221;28;20123;-76
2022/10/14 12:23:32;;;;;;;14.65;9.82;;;14.10;99.90;;;;;;5005711;28;20100;-76
2022/10/14 12:26:04;;;;;;;15.15;8.77;;;14.10;99.90;;;;;;5012702;28;20037;-76
2022/10/14 12:28:29;;;;;;;14.07;8.70;;;14.10;99.90;;;;;;5018377;28;20045;-77
2022/10/14 12:31:20;;;;;;;13.50;8.88;;;14.20;99.90;;;;;;4995158;28;20127;-76
2022/10/14 12:34:14;;;;;;;13.55;8.30;;;14.20;99.90;;;;;;5015434;28;20060;-76
2022/10/14 12:36:42;;;;;;;12.00;8.55;;;14.30;99.90;;;;;;4998018;28;20046;-76
2022/10/14 12:39:40;;;;;;;13.32;8.85;;;14.30;99.90;;;;;;5029977;28;20517;-76
2022/10/14 12:42:11;;;;;;;11.43;8.52;;;14.30;99.90;;;;;;4992359;28;20048;-76
2022/10/14 12:44:47;;;;;;;13.75;9.60;;;14.30;99.90;;;;;;5006822;28;20399;-76
2022/10/14 12:47:39;;;;;;;12.30;9.52;;;14.40;99.90;;;;;;5003563;28;20095;-75
2022/10/14 12:50:30;;;;;;;12.18;8.90;;;14.40;99.90;;;;;;5005356;28;20045;-76
2022/10/14 12:52:59;;;;;;;12.38;9.10;;;14.40;99.90;;;;;;5016179;28;20120;-75